sensor_id;sensor_type;location;lat;lon;timestamp;P1;durP1;ratioP1;P2;durP2;ratioP2
69573;SDS011;62840;52.366;5.980;2024-03-07T00:02:08;20.10;;;8.27;;
69573;SDS011;62840;52.366;5.980;2024-03-07T00:04:34;19.17;;;8.70;;
69573;SDS011;62840;52.366;5.980;2024-03-07T00:07:01;21.33;;;8.15;;
69573;SDS011;62840;52.366;5.980;2024-03-07T00:09:27;16.08;;;7.43;;
69573;SDS011;62840;52.366;5.980;2024-03-07T00:11:55;19.53;;;7.73;;
69573;SDS011;62840;52.366;5.980;2024-03-07T00:14:21;18.25;;;7.75;;
69573;SDS011;62840;52.366;5.980;2024-03-07T00:16:47;17.55;;;7.32;;
69573;SDS011;62840;52.366;5.980;2024-03-07T00:19:13;15.60;;;7.57;;
69573;SDS011;62840;52.366;5.980;2024-03-07T00:21:38;16.90;;;7.90;;
69573;SDS011;62840;52.366;5.980;2024-03-07T00:24:04;19.25;;;8.23;;
69573;SDS011;62840;52.366;5.980;2024-03-07T00:26:31;19.17;;;8.77;;
69573;SDS011;62840;52.366;5.980;2024-03-07T00:28:59;19.83;;;8.38;;
69573;SDS011;62840;52.366;5.980;2024-03-07T00:31:25;21.00;;;8.35;;
69573;SDS011;62840;52.366;5.980;2024-03-07T00:33:51;24.30;;;8.93;;
69573;SDS011;62840;52.366;5.980;2024-03-07T00:36:17;18.40;;;8.20;;
69573;SDS011;62840;52.366;5.980;2024-03-07T00:38:43;18.20;;;8.05;;
69573;SDS011;62840;52.366;5.980;2024-03-07T00:41:09;18.58;;;7.50;;
69573;SDS011;62840;52.366;5.980;2024-03-07T00:43:35;18.55;;;7.85;;
69573;SDS011;62840;52.366;5.980;2024-03-07T00:46:03;18.48;;;7.80;;
69573;SDS011;62840;52.366;5.980;2024-03-07T00:48:29;22.47;;;8.57;;
69573;SDS011;62840;52.366;5.980;2024-03-07T00:50:55;21.95;;;8.88;;
69573;SDS011;62840;52.366;5.980;2024-03-07T00:53:21;20.48;;;8.73;;
69573;SDS011;62840;52.366;5.980;2024-03-07T00:55:47;21.00;;;9.10;;
69573;SDS011;62840;52.366;5.980;2024-03-07T00:58:13;21.73;;;8.63;;
69573;SDS011;62840;52.366;5.980;2024-03-07T01:00:38;19.85;;;8.52;;
69573;SDS011;62840;52.366;5.980;2024-03-07T01:03:07;20.05;;;8.63;;
69573;SDS011;62840;52.366;5.980;2024-03-07T01:05:33;19.25;;;8.63;;
69573;SDS011;62840;52.366;5.980;2024-03-07T01:07:59;19.55;;;8.45;;
69573;SDS011;62840;52.366;5.980;2024-03-07T01:10:24;20.77;;;8.60;;
69573;SDS011;62840;52.366;5.980;2024-03-07T01:12:50;23.88;;;8.90;;
69573;SDS011;62840;52.366;5.980;2024-03-07T01:15:16;21.80;;;8.77;;
69573;SDS011;62840;52.366;5.980;2024-03-07T01:17:42;25.42;;;8.73;;
69573;SDS011;62840;52.366;5.980;2024-03-07T01:20:11;21.75;;;9.27;;
69573;SDS011;62840;52.366;5.980;2024-03-07T01:22:38;21.07;;;8.10;;
69573;SDS011;62840;52.366;5.980;2024-03-07T01:25:04;22.85;;;9.05;;
69573;SDS011;62840;52.366;5.980;2024-03-07T01:27:30;20.42;;;9.05;;
69573;SDS011;62840;52.366;5.980;2024-03-07T01:29:56;21.35;;;9.27;;
69573;SDS011;62840;52.366;5.980;2024-03-07T01:32:22;23.07;;;9.20;;
69573;SDS011;62840;52.366;5.980;2024-03-07T01:34:48;23.33;;;9.00;;
69573;SDS011;62840;52.366;5.980;2024-03-07T01:37:17;22.00;;;9.57;;
69573;SDS011;62840;52.366;5.980;2024-03-07T01:39:43;21.17;;;8.67;;
69573;SDS011;62840;52.366;5.980;2024-03-07T01:42:08;18.77;;;7.93;;
69573;SDS011;62840;52.366;5.980;2024-03-07T01:44:34;19.52;;;8.60;;
69573;SDS011;62840;52.366;5.980;2024-03-07T01:47:00;20.13;;;8.40;;
69573;SDS011;62840;52.366;5.980;2024-03-07T01:49:27;18.73;;;8.43;;
69573;SDS011;62840;52.366;5.980;2024-03-07T01:51:53;19.13;;;8.48;;
69573;SDS011;62840;52.366;5.980;2024-03-07T01:54:22;20.95;;;8.75;;
69573;SDS011;62840;52.366;5.980;2024-03-07T01:56:48;19.87;;;8.40;;
69573;SDS011;62840;52.366;5.980;2024-03-07T01:59:14;22.10;;;8.45;;
69573;SDS011;62840;52.366;5.980;2024-03-07T02:01:42;27.48;;;8.80;;
69573;SDS011;62840;52.366;5.980;2024-03-07T02:04:08;23.80;;;8.88;;
69573;SDS011;62840;52.366;5.980;2024-03-07T02:06:34;20.67;;;7.87;;
69573;SDS011;62840;52.366;5.980;2024-03-07T02:09:00;20.13;;;9.13;;
69573;SDS011;62840;52.366;5.980;2024-03-07T02:11:29;22.88;;;8.88;;
69573;SDS011;62840;52.366;5.980;2024-03-07T02:13:54;20.77;;;8.93;;
69573;SDS011;62840;52.366;5.980;2024-03-07T02:16:20;21.27;;;8.40;;
69573;SDS011;62840;52.366;5.980;2024-03-07T02:18:46;21.73;;;9.20;;
69573;SDS011;62840;52.366;5.980;2024-03-07T02:21:17;20.88;;;8.63;;
69573;SDS011;62840;52.366;5.980;2024-03-07T02:23:43;20.33;;;8.88;;
69573;SDS011;62840;52.366;5.980;2024-03-07T02:26:09;20.23;;;8.60;;
69573;SDS011;62840;52.366;5.980;2024-03-07T02:28:35;20.77;;;9.15;;
69573;SDS011;62840;52.366;5.980;2024-03-07T02:31:01;20.63;;;8.27;;
69573;SDS011;62840;52.366;5.980;2024-03-07T02:33:27;21.65;;;8.57;;
69573;SDS011;62840;52.366;5.980;2024-03-07T02:35:53;20.13;;;8.80;;
69573;SDS011;62840;52.366;5.980;2024-03-07T02:38:21;18.83;;;8.63;;
69573;SDS011;62840;52.366;5.980;2024-03-07T02:40:47;25.00;;;9.38;;
69573;SDS011;62840;52.366;5.980;2024-03-07T02:43:13;22.25;;;9.68;;
69573;SDS011;62840;52.366;5.980;2024-03-07T02:45:39;22.60;;;8.70;;
69573;SDS011;62840;52.366;5.980;2024-03-07T02:48:05;23.13;;;9.10;;
69573;SDS011;62840;52.366;5.980;2024-03-07T02:50:32;20.83;;;8.80;;
69573;SDS011;62840;52.366;5.980;2024-03-07T02:52:57;21.25;;;8.75;;
69573;SDS011;62840;52.366;5.980;2024-03-07T02:55:26;21.33;;;8.77;;
69573;SDS011;62840;52.366;5.980;2024-03-07T02:57:52;22.20;;;8.65;;
69573;SDS011;62840;52.366;5.980;2024-03-07T03:00:18;25.98;;;9.13;;
69573;SDS011;62840;52.366;5.980;2024-03-07T03:02:44;19.73;;;8.88;;
69573;SDS011;62840;52.366;5.980;2024-03-07T03:05:11;23.33;;;9.00;;
69573;SDS011;62840;52.366;5.980;2024-03-07T03:07:37;19.17;;;8.18;;
69573;SDS011;62840;52.366;5.980;2024-03-07T03:10:03;21.80;;;9.32;;
69573;SDS011;62840;52.366;5.980;2024-03-07T03:12:33;21.07;;;9.23;;
69573;SDS011;62840;52.366;5.980;2024-03-07T03:14:59;21.08;;;8.90;;
69573;SDS011;62840;52.366;5.980;2024-03-07T03:17:25;22.92;;;9.63;;
69573;SDS011;62840;52.366;5.980;2024-03-07T03:19:51;26.80;;;9.60;;
69573;SDS011;62840;52.366;5.980;2024-03-07T03:22:17;24.43;;;10.00;;
69573;SDS011;62840;52.366;5.980;2024-03-07T03:24:42;23.38;;;9.88;;
69573;SDS011;62840;52.366;5.980;2024-03-07T03:27:08;23.73;;;9.32;;
69573;SDS011;62840;52.366;5.980;2024-03-07T03:29:37;23.80;;;9.80;;
69573;SDS011;62840;52.366;5.980;2024-03-07T03:32:03;21.92;;;8.52;;
69573;SDS011;62840;52.366;5.980;2024-03-07T03:34:29;23.27;;;9.13;;
69573;SDS011;62840;52.366;5.980;2024-03-07T03:36:55;25.10;;;9.60;;
69573;SDS011;62840;52.366;5.980;2024-03-07T03:39:21;22.73;;;9.70;;
69573;SDS011;62840;52.366;5.980;2024-03-07T03:41:47;25.20;;;9.63;;
69573;SDS011;62840;52.366;5.980;2024-03-07T03:44:13;22.63;;;10.47;;
69573;SDS011;62840;52.366;5.980;2024-03-07T03:46:41;23.85;;;9.68;;
69573;SDS011;62840;52.366;5.980;2024-03-07T03:49:07;25.00;;;9.07;;
69573;SDS011;62840;52.366;5.980;2024-03-07T03:51:33;23.70;;;9.33;;
69573;SDS011;62840;52.366;5.980;2024-03-07T03:53:59;23.73;;;9.50;;
69573;SDS011;62840;52.366;5.980;2024-03-07T03:56:25;23.48;;;8.90;;
69573;SDS011;62840;52.366;5.980;2024-03-07T03:58:51;23.43;;;8.73;;
69573;SDS011;62840;52.366;5.980;2024-03-07T04:01:17;21.52;;;9.32;;
69573;SDS011;62840;52.366;5.980;2024-03-07T04:03:45;20.52;;;8.60;;
69573;SDS011;62840;52.366;5.980;2024-03-07T04:06:11;23.02;;;8.65;;
69573;SDS011;62840;52.366;5.980;2024-03-07T04:08:37;23.45;;;9.13;;
69573;SDS011;62840;52.366;5.980;2024-03-07T04:11:03;25.08;;;9.88;;
69573;SDS011;62840;52.366;5.980;2024-03-07T04:13:29;25.77;;;9.83;;
69573;SDS011;62840;52.366;5.980;2024-03-07T04:15:55;22.15;;;9.40;;
69573;SDS011;62840;52.366;5.980;2024-03-07T04:18:21;22.20;;;9.18;;
69573;SDS011;62840;52.366;5.980;2024-03-07T04:20:49;27.37;;;11.17;;
69573;SDS011;62840;52.366;5.980;2024-03-07T04:23:15;24.38;;;9.60;;
69573;SDS011;62840;52.366;5.980;2024-03-07T04:25:41;24.40;;;10.65;;
69573;SDS011;62840;52.366;5.980;2024-03-07T04:28:07;23.42;;;9.85;;
69573;SDS011;62840;52.366;5.980;2024-03-07T04:30:33;25.03;;;9.70;;
69573;SDS011;62840;52.366;5.980;2024-03-07T04:32:59;22.85;;;9.90;;
69573;SDS011;62840;52.366;5.980;2024-03-07T04:35:25;22.92;;;9.70;;
69573;SDS011;62840;52.366;5.980;2024-03-07T04:37:53;26.50;;;10.90;;
69573;SDS011;62840;52.366;5.980;2024-03-07T04:40:19;23.10;;;9.65;;
69573;SDS011;62840;52.366;5.980;2024-03-07T04:42:45;21.20;;;9.48;;
69573;SDS011;62840;52.366;5.980;2024-03-07T04:45:16;23.27;;;10.13;;
69573;SDS011;62840;52.366;5.980;2024-03-07T04:47:44;23.48;;;9.90;;
69573;SDS011;62840;52.366;5.980;2024-03-07T04:50:10;19.70;;;8.40;;
69573;SDS011;62840;52.366;5.980;2024-03-07T04:52:37;22.98;;;9.80;;
69573;SDS011;62840;52.366;5.980;2024-03-07T04:55:06;25.10;;;10.10;;
69573;SDS011;62840;52.366;5.980;2024-03-07T04:57:34;24.03;;;9.80;;
69573;SDS011;62840;52.366;5.980;2024-03-07T05:00:00;23.35;;;10.57;;
69573;SDS011;62840;52.366;5.980;2024-03-07T05:02:25;23.27;;;9.98;;
69573;SDS011;62840;52.366;5.980;2024-03-07T05:04:51;24.77;;;10.30;;
69573;SDS011;62840;52.366;5.980;2024-03-07T05:07:17;24.10;;;10.38;;
69573;SDS011;62840;52.366;5.980;2024-03-07T05:09:43;24.50;;;9.25;;
69573;SDS011;62840;52.366;5.980;2024-03-07T05:12:12;26.57;;;11.20;;
69573;SDS011;62840;52.366;5.980;2024-03-07T05:14:39;24.67;;;9.77;;
69573;SDS011;62840;52.366;5.980;2024-03-07T05:17:05;23.00;;;10.20;;
69573;SDS011;62840;52.366;5.980;2024-03-07T05:19:31;19.60;;;8.90;;
69573;SDS011;62840;52.366;5.980;2024-03-07T05:21:57;23.23;;;9.98;;
69573;SDS011;62840;52.366;5.980;2024-03-07T05:24:23;23.58;;;9.60;;
69573;SDS011;62840;52.366;5.980;2024-03-07T05:26:49;24.50;;;9.70;;
69573;SDS011;62840;52.366;5.980;2024-03-07T05:29:18;25.23;;;10.83;;
69573;SDS011;62840;52.366;5.980;2024-03-07T05:31:45;22.13;;;10.60;;
69573;SDS011;62840;52.366;5.980;2024-03-07T05:34:11;20.58;;;9.55;;
69573;SDS011;62840;52.366;5.980;2024-03-07T05:36:39;22.90;;;10.55;;
69573;SDS011;62840;52.366;5.980;2024-03-07T05:39:05;21.80;;;9.27;;
69573;SDS011;62840;52.366;5.980;2024-03-07T05:41:31;21.20;;;9.52;;
69573;SDS011;62840;52.366;5.980;2024-03-07T05:43:57;22.70;;;10.32;;
69573;SDS011;62840;52.366;5.980;2024-03-07T05:46:25;22.43;;;9.57;;
69573;SDS011;62840;52.366;5.980;2024-03-07T05:48:51;21.38;;;9.02;;
69573;SDS011;62840;52.366;5.980;2024-03-07T05:51:17;24.60;;;9.88;;
69573;SDS011;62840;52.366;5.980;2024-03-07T05:53:43;21.00;;;9.53;;
69573;SDS011;62840;52.366;5.980;2024-03-07T05:56:09;21.48;;;9.18;;
69573;SDS011;62840;52.366;5.980;2024-03-07T05:58:35;21.63;;;9.38;;
69573;SDS011;62840;52.366;5.980;2024-03-07T06:01:01;21.27;;;9.07;;
69573;SDS011;62840;52.366;5.980;2024-03-07T06:03:30;22.95;;;9.05;;
69573;SDS011;62840;52.366;5.980;2024-03-07T06:05:56;22.02;;;10.35;;
69573;SDS011;62840;52.366;5.980;2024-03-07T06:08:21;23.35;;;10.07;;
69573;SDS011;62840;52.366;5.980;2024-03-07T06:10:47;21.30;;;8.83;;
69573;SDS011;62840;52.366;5.980;2024-03-07T06:13:14;23.88;;;10.35;;
69573;SDS011;62840;52.366;5.980;2024-03-07T06:15:43;22.38;;;9.35;;
69573;SDS011;62840;52.366;5.980;2024-03-07T06:18:09;21.90;;;9.57;;
69573;SDS011;62840;52.366;5.980;2024-03-07T06:20:38;19.87;;;9.27;;
69573;SDS011;62840;52.366;5.980;2024-03-07T06:23:04;19.27;;;8.95;;
69573;SDS011;62840;52.366;5.980;2024-03-07T06:25:30;19.83;;;8.60;;
69573;SDS011;62840;52.366;5.980;2024-03-07T06:27:56;19.85;;;9.43;;
69573;SDS011;62840;52.366;5.980;2024-03-07T06:30:22;20.93;;;9.00;;
69573;SDS011;62840;52.366;5.980;2024-03-07T06:32:48;18.48;;;8.98;;
69573;SDS011;62840;52.366;5.980;2024-03-07T06:35:14;18.25;;;8.95;;
69573;SDS011;62840;52.366;5.980;2024-03-07T06:37:43;18.80;;;9.18;;
69573;SDS011;62840;52.366;5.980;2024-03-07T06:40:09;23.20;;;9.52;;
69573;SDS011;62840;52.366;5.980;2024-03-07T06:42:36;21.17;;;9.48;;
69573;SDS011;62840;52.366;5.980;2024-03-07T06:45:02;18.43;;;8.30;;
69573;SDS011;62840;52.366;5.980;2024-03-07T06:47:28;19.45;;;9.07;;
69573;SDS011;62840;52.366;5.980;2024-03-07T06:49:54;19.52;;;7.88;;
69573;SDS011;62840;52.366;5.980;2024-03-07T06:52:20;17.93;;;8.40;;
69573;SDS011;62840;52.366;5.980;2024-03-07T06:54:48;21.17;;;8.82;;
69573;SDS011;62840;52.366;5.980;2024-03-07T06:57:17;20.17;;;8.38;;
69573;SDS011;62840;52.366;5.980;2024-03-07T06:59:43;20.98;;;8.98;;
69573;SDS011;62840;52.366;5.980;2024-03-07T07:02:09;20.93;;;9.27;;
69573;SDS011;62840;52.366;5.980;2024-03-07T07:04:34;18.83;;;8.93;;
69573;SDS011;62840;52.366;5.980;2024-03-07T07:07:00;23.40;;;9.00;;
69573;SDS011;62840;52.366;5.980;2024-03-07T07:09:26;18.93;;;8.83;;
69573;SDS011;62840;52.366;5.980;2024-03-07T07:11:54;19.58;;;8.80;;
69573;SDS011;62840;52.366;5.980;2024-03-07T07:14:20;18.98;;;8.50;;
69573;SDS011;62840;52.366;5.980;2024-03-07T07:16:46;22.70;;;8.97;;
69573;SDS011;62840;52.366;5.980;2024-03-07T07:19:12;18.05;;;8.52;;
69573;SDS011;62840;52.366;5.980;2024-03-07T07:21:38;18.27;;;8.10;;
69573;SDS011;62840;52.366;5.980;2024-03-07T07:24:05;17.08;;;8.30;;
69573;SDS011;62840;52.366;5.980;2024-03-07T07:26:31;20.08;;;9.70;;
69573;SDS011;62840;52.366;5.980;2024-03-07T07:28:59;18.25;;;7.78;;
69573;SDS011;62840;52.366;5.980;2024-03-07T07:31:25;18.73;;;8.00;;
69573;SDS011;62840;52.366;5.980;2024-03-07T07:33:51;18.52;;;8.57;;
69573;SDS011;62840;52.366;5.980;2024-03-07T07:36:17;22.95;;;8.70;;
69573;SDS011;62840;52.366;5.980;2024-03-07T07:38:43;18.07;;;8.10;;
69573;SDS011;62840;52.366;5.980;2024-03-07T07:41:09;18.65;;;8.50;;
69573;SDS011;62840;52.366;5.980;2024-03-07T07:43:34;23.13;;;8.70;;
69573;SDS011;62840;52.366;5.980;2024-03-07T07:46:03;20.13;;;8.75;;
69573;SDS011;62840;52.366;5.980;2024-03-07T07:48:29;20.25;;;8.70;;
69573;SDS011;62840;52.366;5.980;2024-03-07T07:50:55;21.93;;;9.87;;
69573;SDS011;62840;52.366;5.980;2024-03-07T07:53:20;18.70;;;8.88;;
69573;SDS011;62840;52.366;5.980;2024-03-07T07:55:46;21.35;;;9.23;;
69573;SDS011;62840;52.366;5.980;2024-03-07T07:58:12;17.53;;;8.10;;
69573;SDS011;62840;52.366;5.980;2024-03-07T08:00:38;21.40;;;8.57;;
69573;SDS011;62840;52.366;5.980;2024-03-07T08:03:07;18.42;;;7.93;;
69573;SDS011;62840;52.366;5.980;2024-03-07T08:05:33;19.83;;;8.77;;
69573;SDS011;62840;52.366;5.980;2024-03-07T08:08:01;19.20;;;8.93;;
69573;SDS011;62840;52.366;5.980;2024-03-07T08:10:29;17.85;;;8.55;;
69573;SDS011;62840;52.366;5.980;2024-03-07T08:12:55;20.30;;;9.13;;
69573;SDS011;62840;52.366;5.980;2024-03-07T08:15:21;20.90;;;8.57;;
69573;SDS011;62840;52.366;5.980;2024-03-07T08:17:47;19.93;;;8.87;;
69573;SDS011;62840;52.366;5.980;2024-03-07T08:20:17;17.17;;;8.57;;
69573;SDS011;62840;52.366;5.980;2024-03-07T08:22:44;18.10;;;8.80;;
69573;SDS011;62840;52.366;5.980;2024-03-07T08:25:10;18.40;;;8.13;;
69573;SDS011;62840;52.366;5.980;2024-03-07T08:27:38;18.80;;;8.13;;
69573;SDS011;62840;52.366;5.980;2024-03-07T08:30:05;18.80;;;7.75;;
69573;SDS011;62840;52.366;5.980;2024-03-07T08:32:33;18.23;;;7.88;;
69573;SDS011;62840;52.366;5.980;2024-03-07T08:35:00;17.65;;;8.27;;
69573;SDS011;62840;52.366;5.980;2024-03-07T08:37:28;17.97;;;8.20;;
69573;SDS011;62840;52.366;5.980;2024-03-07T08:39:54;16.20;;;7.25;;
69573;SDS011;62840;52.366;5.980;2024-03-07T08:42:20;16.65;;;7.72;;
69573;SDS011;62840;52.366;5.980;2024-03-07T08:44:45;16.07;;;7.67;;
69573;SDS011;62840;52.366;5.980;2024-03-07T08:47:11;19.40;;;7.93;;
69573;SDS011;62840;52.366;5.980;2024-03-07T08:49:37;15.55;;;7.97;;
69573;SDS011;62840;52.366;5.980;2024-03-07T08:52:03;14.73;;;7.23;;
69573;SDS011;62840;52.366;5.980;2024-03-07T08:54:32;16.40;;;7.43;;
69573;SDS011;62840;52.366;5.980;2024-03-07T08:56:58;17.02;;;7.50;;
69573;SDS011;62840;52.366;5.980;2024-03-07T08:59:23;16.37;;;7.33;;
69573;SDS011;62840;52.366;5.980;2024-03-07T09:01:49;16.15;;;7.25;;
69573;SDS011;62840;52.366;5.980;2024-03-07T09:04:15;15.65;;;7.13;;
69573;SDS011;62840;52.366;5.980;2024-03-07T09:06:41;18.43;;;7.33;;
69573;SDS011;62840;52.366;5.980;2024-03-07T09:09:07;15.20;;;6.88;;
69573;SDS011;62840;52.366;5.980;2024-03-07T09:11:35;15.27;;;7.70;;
69573;SDS011;62840;52.366;5.980;2024-03-07T09:14:01;15.10;;;6.95;;
69573;SDS011;62840;52.366;5.980;2024-03-07T09:16:27;15.73;;;6.70;;
69573;SDS011;62840;52.366;5.980;2024-03-07T09:18:53;16.50;;;7.07;;
69573;SDS011;62840;52.366;5.980;2024-03-07T09:21:19;15.63;;;6.45;;
69573;SDS011;62840;52.366;5.980;2024-03-07T09:23:45;15.77;;;6.82;;
69573;SDS011;62840;52.366;5.980;2024-03-07T09:26:10;16.10;;;7.50;;
69573;SDS011;62840;52.366;5.980;2024-03-07T09:28:39;15.82;;;6.88;;
69573;SDS011;62840;52.366;5.980;2024-03-07T09:31:05;18.40;;;7.18;;
69573;SDS011;62840;52.366;5.980;2024-03-07T09:33:31;14.63;;;6.60;;
69573;SDS011;62840;52.366;5.980;2024-03-07T09:35:56;16.38;;;7.22;;
69573;SDS011;62840;52.366;5.980;2024-03-07T09:38:22;15.13;;;6.60;;
69573;SDS011;62840;52.366;5.980;2024-03-07T09:40:48;14.77;;;6.80;;
69573;SDS011;62840;52.366;5.980;2024-03-07T09:43:14;16.05;;;7.72;;
69573;SDS011;62840;52.366;5.980;2024-03-07T09:45:45;17.70;;;7.88;;
69573;SDS011;62840;52.366;5.980;2024-03-07T09:48:12;16.13;;;7.60;;
69573;SDS011;62840;52.366;5.980;2024-03-07T09:50:38;14.82;;;7.82;;
69573;SDS011;62840;52.366;5.980;2024-03-07T09:53:06;15.23;;;7.13;;
69573;SDS011;62840;52.366;5.980;2024-03-07T09:55:32;17.48;;;7.57;;
69573;SDS011;62840;52.366;5.980;2024-03-07T09:57:59;16.83;;;7.57;;
69573;SDS011;62840;52.366;5.980;2024-03-07T10:00:27;19.38;;;7.60;;
69573;SDS011;62840;52.366;5.980;2024-03-07T10:02:56;17.02;;;7.68;;
69573;SDS011;62840;52.366;5.980;2024-03-07T10:05:25;16.23;;;7.32;;
69573;SDS011;62840;52.366;5.980;2024-03-07T10:07:52;18.13;;;7.35;;
69573;SDS011;62840;52.366;5.980;2024-03-07T10:10:18;17.10;;;7.37;;
69573;SDS011;62840;52.366;5.980;2024-03-07T10:12:44;16.40;;;7.72;;
69573;SDS011;62840;52.366;5.980;2024-03-07T10:15:10;18.75;;;7.55;;
69573;SDS011;62840;52.366;5.980;2024-03-07T10:17:36;17.80;;;7.73;;
69573;SDS011;62840;52.366;5.980;2024-03-07T10:20:06;17.90;;;7.57;;
69573;SDS011;62840;52.366;5.980;2024-03-07T10:22:33;17.73;;;7.63;;
69573;SDS011;62840;52.366;5.980;2024-03-07T10:24:59;16.95;;;7.28;;
69573;SDS011;62840;52.366;5.980;2024-03-07T10:27:25;16.33;;;7.93;;
69573;SDS011;62840;52.366;5.980;2024-03-07T10:29:53;16.40;;;7.57;;
69573;SDS011;62840;52.366;5.980;2024-03-07T10:32:20;15.18;;;6.72;;
69573;SDS011;62840;52.366;5.980;2024-03-07T10:34:47;16.80;;;8.37;;
69573;SDS011;62840;52.366;5.980;2024-03-07T10:37:17;18.02;;;7.38;;
69573;SDS011;62840;52.366;5.980;2024-03-07T10:39:44;16.48;;;7.00;;
69573;SDS011;62840;52.366;5.980;2024-03-07T10:42:12;17.63;;;7.70;;
69573;SDS011;62840;52.366;5.980;2024-03-07T10:44:39;17.20;;;8.10;;
69573;SDS011;62840;52.366;5.980;2024-03-07T10:47:09;16.70;;;7.10;;
69573;SDS011;62840;52.366;5.980;2024-03-07T10:49:43;14.93;;;7.28;;
69573;SDS011;62840;52.366;5.980;2024-03-07T10:52:29;14.63;;;8.07;;
69573;SDS011;62840;52.366;5.980;2024-03-07T10:55:07;17.73;;;7.63;;
69573;SDS011;62840;52.366;5.980;2024-03-07T10:57:42;18.27;;;7.70;;
69573;SDS011;62840;52.366;5.980;2024-03-07T11:00:16;18.00;;;8.13;;
69573;SDS011;62840;52.366;5.980;2024-03-07T11:02:43;16.08;;;7.78;;
69573;SDS011;62840;52.366;5.980;2024-03-07T11:05:12;15.35;;;7.22;;
69573;SDS011;62840;52.366;5.980;2024-03-07T11:07:43;18.25;;;8.55;;
69573;SDS011;62840;52.366;5.980;2024-03-07T11:10:09;14.98;;;7.95;;
69573;SDS011;62840;52.366;5.980;2024-03-07T11:12:36;16.40;;;8.47;;
69573;SDS011;62840;52.366;5.980;2024-03-07T11:15:05;20.10;;;8.88;;
69573;SDS011;62840;52.366;5.980;2024-03-07T11:17:36;19.80;;;8.98;;
69573;SDS011;62840;52.366;5.980;2024-03-07T11:22:49;16.52;;;7.97;;
69573;SDS011;62840;52.366;5.980;2024-03-07T11:25:19;19.30;;;8.43;;
69573;SDS011;62840;52.366;5.980;2024-03-07T11:27:55;20.92;;;9.20;;
69573;SDS011;62840;52.366;5.980;2024-03-07T11:30:22;17.48;;;8.75;;
69573;SDS011;62840;52.366;5.980;2024-03-07T11:32:49;20.75;;;8.95;;
69573;SDS011;62840;52.366;5.980;2024-03-07T11:35:16;19.52;;;8.88;;
69573;SDS011;62840;52.366;5.980;2024-03-07T11:37:42;19.30;;;8.67;;
69573;SDS011;62840;52.366;5.980;2024-03-07T11:40:12;20.00;;;8.98;;
69573;SDS011;62840;52.366;5.980;2024-03-07T11:42:42;18.48;;;9.55;;
69573;SDS011;62840;52.366;5.980;2024-03-07T11:45:11;22.25;;;9.98;;
69573;SDS011;62840;52.366;5.980;2024-03-07T11:47:37;19.90;;;8.80;;
69573;SDS011;62840;52.366;5.980;2024-03-07T11:50:04;20.15;;;9.25;;
69573;SDS011;62840;52.366;5.980;2024-03-07T11:52:32;20.13;;;9.18;;
69573;SDS011;62840;52.366;5.980;2024-03-07T11:54:58;19.13;;;8.77;;
69573;SDS011;62840;52.366;5.980;2024-03-07T11:57:26;18.42;;;8.85;;
69573;SDS011;62840;52.366;5.980;2024-03-07T11:59:52;17.33;;;8.13;;
69573;SDS011;62840;52.366;5.980;2024-03-07T12:02:18;20.98;;;9.68;;
69573;SDS011;62840;52.366;5.980;2024-03-07T12:04:45;21.35;;;9.35;;
69573;SDS011;62840;52.366;5.980;2024-03-07T12:07:10;18.77;;;8.40;;
69573;SDS011;62840;52.366;5.980;2024-03-07T12:09:37;19.17;;;8.80;;
69573;SDS011;62840;52.366;5.980;2024-03-07T12:12:03;18.80;;;9.52;;
69573;SDS011;62840;52.366;5.980;2024-03-07T12:14:34;17.40;;;8.35;;
69573;SDS011;62840;52.366;5.980;2024-03-07T12:17:00;16.27;;;8.43;;
69573;SDS011;62840;52.366;5.980;2024-03-07T12:19:27;18.63;;;8.67;;
69573;SDS011;62840;52.366;5.980;2024-03-07T12:21:56;17.50;;;8.93;;
69573;SDS011;62840;52.366;5.980;2024-03-07T12:24:22;17.73;;;8.23;;
69573;SDS011;62840;52.366;5.980;2024-03-07T12:26:48;18.63;;;8.35;;
69573;SDS011;62840;52.366;5.980;2024-03-07T12:29:14;17.70;;;8.27;;
69573;SDS011;62840;52.366;5.980;2024-03-07T12:31:42;18.75;;;8.18;;
69573;SDS011;62840;52.366;5.980;2024-03-07T12:34:08;20.98;;;8.18;;
69573;SDS011;62840;52.366;5.980;2024-03-07T12:36:34;17.38;;;8.27;;
69573;SDS011;62840;52.366;5.980;2024-03-07T12:39:00;16.30;;;8.40;;
69573;SDS011;62840;52.366;5.980;2024-03-07T12:41:26;19.98;;;8.60;;
69573;SDS011;62840;52.366;5.980;2024-03-07T12:43:54;15.27;;;7.82;;
69573;SDS011;62840;52.366;5.980;2024-03-07T12:46:20;16.70;;;7.80;;
69573;SDS011;62840;52.366;5.980;2024-03-07T12:48:48;16.45;;;8.32;;
69573;SDS011;62840;52.366;5.980;2024-03-07T12:51:14;18.55;;;8.13;;
69573;SDS011;62840;52.366;5.980;2024-03-07T12:53:40;15.65;;;8.43;;
69573;SDS011;62840;52.366;5.980;2024-03-07T12:56:06;16.35;;;7.78;;
69573;SDS011;62840;52.366;5.980;2024-03-07T12:58:31;15.20;;;7.35;;
69573;SDS011;62840;52.366;5.980;2024-03-07T13:00:57;16.67;;;7.60;;
69573;SDS011;62840;52.366;5.980;2024-03-07T13:03:24;16.30;;;7.50;;
69573;SDS011;62840;52.366;5.980;2024-03-07T13:05:53;17.63;;;8.30;;
69573;SDS011;62840;52.366;5.980;2024-03-07T13:08:19;16.50;;;7.55;;
69573;SDS011;62840;52.366;5.980;2024-03-07T13:10:44;14.93;;;7.33;;
69573;SDS011;62840;52.366;5.980;2024-03-07T13:13:10;15.90;;;7.47;;
69573;SDS011;62840;52.366;5.980;2024-03-07T13:15:36;14.50;;;7.55;;
69573;SDS011;62840;52.366;5.980;2024-03-07T13:18:02;12.87;;;6.60;;
69573;SDS011;62840;52.366;5.980;2024-03-07T13:20:29;14.85;;;7.30;;
69573;SDS011;62840;52.366;5.980;2024-03-07T13:22:58;13.07;;;6.80;;
69573;SDS011;62840;52.366;5.980;2024-03-07T13:25:25;13.93;;;7.07;;
69573;SDS011;62840;52.366;5.980;2024-03-07T13:27:52;14.02;;;7.53;;
69573;SDS011;62840;52.366;5.980;2024-03-07T13:30:23;14.10;;;6.80;;
69573;SDS011;62840;52.366;5.980;2024-03-07T13:32:50;14.73;;;7.10;;
69573;SDS011;62840;52.366;5.980;2024-03-07T13:35:16;15.00;;;7.30;;
69573;SDS011;62840;52.366;5.980;2024-03-07T13:37:42;14.18;;;6.43;;
69573;SDS011;62840;52.366;5.980;2024-03-07T13:40:11;15.07;;;7.73;;
69573;SDS011;62840;52.366;5.980;2024-03-07T13:42:37;14.98;;;6.68;;
69573;SDS011;62840;52.366;5.980;2024-03-07T13:45:03;12.73;;;7.25;;
69573;SDS011;62840;52.366;5.980;2024-03-07T13:47:30;14.30;;;7.40;;
69573;SDS011;62840;52.366;5.980;2024-03-07T13:49:55;14.00;;;6.97;;
69573;SDS011;62840;52.366;5.980;2024-03-07T13:52:21;12.43;;;6.60;;
69573;SDS011;62840;52.366;5.980;2024-03-07T13:54:47;13.47;;;6.63;;
69573;SDS011;62840;52.366;5.980;2024-03-07T13:57:23;13.68;;;6.68;;
69573;SDS011;62840;52.366;5.980;2024-03-07T14:00:05;13.57;;;6.88;;
69573;SDS011;62840;52.366;5.980;2024-03-07T14:03:10;14.43;;;6.30;;
69573;SDS011;62840;52.366;5.980;2024-03-07T14:06:02;13.50;;;6.77;;
69573;SDS011;62840;52.366;5.980;2024-03-07T14:08:43;15.82;;;7.13;;
69573;SDS011;62840;52.366;5.980;2024-03-07T14:22:12;12.77;;;6.07;;
69573;SDS011;62840;52.366;5.980;2024-03-07T14:25:04;15.02;;;6.32;;
69573;SDS011;62840;52.366;5.980;2024-03-07T14:27:57;13.90;;;6.78;;
69573;SDS011;62840;52.366;5.980;2024-03-07T14:30:44;15.60;;;7.32;;
69573;SDS011;62840;52.366;5.980;2024-03-07T14:33:17;15.15;;;6.68;;
69573;SDS011;62840;52.366;5.980;2024-03-07T14:36:04;12.90;;;6.33;;
69573;SDS011;62840;52.366;5.980;2024-03-07T14:38:46;13.88;;;6.18;;
69573;SDS011;62840;52.366;5.980;2024-03-07T14:41:16;12.30;;;6.20;;
69573;SDS011;62840;52.366;5.980;2024-03-07T14:43:44;15.32;;;7.15;;
69573;SDS011;62840;52.366;5.980;2024-03-07T14:46:11;14.38;;;6.47;;
69573;SDS011;62840;52.366;5.980;2024-03-07T14:48:40;14.83;;;7.03;;